Nearby METAR Reports

 

KHCR - Heber/Russ Mcdon, Utah, USA
Distance from station: SSW 18mi, 29km
Updated: Wed, 12-Aug-2020 11:55am MDT
Clear
Clear
 Wind from SSW
Wind: SSW 20 mph , 31 km/h
Temperature: 84°F , 29°C
Dew Point: 27°F , -3°C
Humidity: 12%
Barometer: 30.12 inHg , 1020 hPa
Clouds: Clear
Visibility: 10 miles , 16 km
2020/08/12 17:55 KHCR 121755Z AUTO 21017KT 10SM CLR 29/M03 A3012 RMK AO2
KSLC - Salt Lake City, Utah, USA
Distance from station: W 35mi, 57km
Updated: Wed, 12-Aug-2020 11:54am MDT
Few Clouds
Few Clouds
 Wind from calm
Wind: Calm
Temperature: 88°F , 31°C
Dew Point: 36°F , 2°C
Humidity: 16%
Barometer: 30.03 inHg , 1016.9 hPa
Clouds: Few Clouds
Visibility: 10 miles , 16 km
Cloud details: Few Clouds 10000 ft
Few Clouds 17000 ft
2020/08/12 17:54 KSLC 121754Z 00000KT 10SM FEW100 FEW170 31/02 A3003 RMK AO2 SLP107 ACC NW ACSL DSNT SE T03060022 10311 20206 52004
 
KU42 - Salt Lake Muni, Utah, USA
Distance from station: WSW 37mi, 59km
Updated: Wed, 12-Aug-2020 12:15pm MDT
Clear
Clear
 Wind from calm
Wind: Calm
Temperature: 86°F , 30°C
Dew Point: 41°F , 5°C
Humidity: 20%
Barometer: 30.07 inHg , 1018.3 hPa
Clouds: Clear
Visibility: 10 miles , 16 km
2020/08/12 18:15 KU42 121815Z AUTO 00000KT 10SM CLR 30/05 A3007 RMK AO1 T02990045
KEVW - Evanston, Wyoming, USA
Distance from station: NNE 40mi, 64km
Updated: Wed, 12-Aug-2020 11:53am MDT
Clear
Clear
 Wind from WSW
Wind: WSW 18 mph , 30 km/h, Gust: 26 mph , 43 km/h
Temperature: 77°F , 25°C
Dew Point: 30°F , -1°C
Humidity: 18%
Barometer: 30.22 inHg , 1023.4 hPa
Clouds: Clear
Visibility: 10 miles , 16 km
2020/08/12 17:53 KEVW 121753Z AUTO 24016G23KT 10SM CLR 25/M01 A3022 RMK AO2 SLP128 T02501006 10250 20122 52005
 
KPVU - Provo Muni, Utah, USA
Distance from station: SSW 41mi, 67km
Updated: Wed, 12-Aug-2020 11:56am MDT
Few Clouds
Few Clouds
 Wind from ENE
Wind: ENE 6 mph , 9 km/h
Temperature: 88°F , 31°C
Dew Point: 28°F , -2°C
Humidity: 12%
Barometer: 30.07 inHg , 1018.3 hPa
Clouds: Few Clouds
Visibility: 10 miles , 16 km
Cloud details: Few Clouds 13000 ft
2020/08/12 17:56 KPVU 121756Z 07005KT 10SM FEW130 31/M02 A3007 RMK AO2 SLP118 T03061017 10306 20161 50001
KHIF - Hill Afb/Ogden, Utah, USA
Distance from station: NW 45mi, 72km
Updated: Wed, 12-Aug-2020 11:58am MDT
Clear
Clear
 Wind from calm
Wind: Calm
Temperature: 82°F , 28°C
Dew Point: 36°F , 2°C
Humidity: 19%
Barometer: 30.09 inHg , 1019 hPa
Clouds: Clear
Visibility: 10 miles , 16 km
2020/08/12 17:58 KHIF 121758Z AUTO 00000KT 10SM CLR 28/02 A3009 RMK AO2 SLP124 T02810023 10283 20189 52008
 
KOGD - Ogden, Utah, USA
Distance from station: NW 50mi, 81km
Updated: Wed, 12-Aug-2020 11:53am MDT
Clear
Clear
 Wind from WSW
Wind: WSW 8 mph , 13 km/h
Temperature: 86°F , 30°C
Dew Point: 36°F , 2°C
Humidity: 17%
Barometer: 30.06 inHg , 1017.9 hPa
Clouds: Clear
Visibility: 10 miles , 16 km
2020/08/12 17:53 KOGD 121753Z 24007KT 10SM CLR 30/02 A3006 RMK AO2 SLP110 T03000017 10300 20200 53006 $